createdAt,value
2018-09-17T00:00:19.235Z,100580.86
2018-09-17T00:02:47.520Z,100579.48
2018-09-17T00:05:16.005Z,100577.91
2018-09-17T00:07:45.958Z,100580.53
2018-09-17T00:10:14.521Z,100581.54
2018-09-17T00:12:42.939Z,100582.36
2018-09-17T00:15:11.882Z,100584.97
2018-09-17T00:17:40.421Z,100572.94
2018-09-17T00:20:08.829Z,100570.48
2018-09-17T00:22:37.638Z,100571.84
2018-09-17T00:25:05.778Z,100570.38
2018-09-17T00:27:34.243Z,100566.66
2018-09-17T00:30:02.862Z,100569.54
2018-09-17T00:32:31.747Z,100571.87
2018-09-17T00:35:01.671Z,100575.14
2018-09-17T00:37:30.212Z,100574.51
2018-09-17T00:39:58.591Z,100567.95
2018-09-17T00:42:26.661Z,100565.48
2018-09-17T00:44:55.703Z,100567.82
2018-09-17T00:47:24.100Z,100564.33
2018-09-17T00:49:53.902Z,100565.10
2018-09-17T00:57:57.746Z,100564.70
2018-09-17T01:00:27.126Z,100568.36
2018-09-17T01:02:55.316Z,100568.82
2018-09-17T01:05:23.503Z,100565.94
2018-09-17T01:07:52.670Z,100571.06
2018-09-17T01:15:18.850Z,100573.90
2018-09-17T01:17:47.509Z,100578.16
2018-09-17T01:20:16.771Z,100570.80
2018-09-17T01:22:45.112Z,100564.04
2018-09-17T01:25:14.192Z,100569.26
2018-09-17T01:27:42.315Z,100573.81
2018-09-17T01:30:10.866Z,100564.25
2018-09-17T01:32:39.095Z,100567.31
2018-09-17T01:35:07.207Z,100564.66
2018-09-17T01:37:35.942Z,100563.03
2018-09-17T01:40:04.308Z,100557.54
2018-09-17T01:42:32.659Z,100554.03
2018-09-17T01:45:01.835Z,100561.95
2018-09-17T01:47:31.309Z,100573.11
2018-09-17T01:49:59.663Z,100577.62
2018-09-17T01:52:27.766Z,100575.91
2018-09-17T01:55:00.585Z,100587.04
2018-09-17T01:57:28.714Z,100588.88
2018-09-17T01:59:58.679Z,100593.91
2018-09-17T02:02:27.249Z,100586.56
2018-09-17T02:04:55.689Z,100595.58
2018-09-17T02:07:28.536Z,100588.86
2018-09-17T02:09:56.793Z,100588.90
2018-09-17T02:12:25.732Z,100586.61
2018-09-17T02:14:53.990Z,100593.77
2018-09-17T02:17:24.291Z,100590.29
2018-09-17T02:19:54.486Z,100590.56
2018-09-17T02:22:22.827Z,100588.48
2018-09-17T02:24:53.206Z,100588.69
2018-09-17T02:27:25.323Z,100590.95
2018-09-17T02:29:54.220Z,100596.41
2018-09-17T02:32:24.613Z,100594.79
2018-09-17T02:34:52.689Z,100596.03
2018-09-17T02:37:23.119Z,100591.38
2018-09-17T02:39:54.010Z,100596.08
2018-09-17T02:42:23.179Z,100597.83
2018-09-17T02:44:51.839Z,100599.58
2018-09-17T02:47:20.491Z,100599.61
2018-09-17T02:49:49.193Z,100604.51
2018-09-17T02:52:17.345Z,100607.34
2018-09-17T02:54:45.554Z,100610.73
2018-09-17T02:57:13.699Z,100618.71
2018-09-17T02:59:41.954Z,100620.31
2018-09-17T03:02:10.066Z,100613.82
2018-09-17T03:04:38.151Z,100618.83
2018-09-17T03:07:06.284Z,100611.52
2018-09-17T03:09:34.462Z,100610.45
2018-09-17T03:12:04.046Z,100610.14
2018-09-17T03:14:32.214Z,100610.03
2018-09-17T03:17:09.523Z,100610.58
2018-09-17T03:19:37.611Z,100606.72
2018-09-17T03:22:07.331Z,100613.67
2018-09-17T03:24:37.052Z,100617.65
2018-09-17T03:27:08.753Z,100621.53
2018-09-17T03:29:37.025Z,100619.20
2018-09-17T03:32:06.632Z,100619.47
2018-09-17T03:34:34.675Z,100619.11
2018-09-17T03:37:02.734Z,100617.38
2018-09-17T03:39:30.845Z,100618.55
2018-09-17T03:41:59.459Z,100621.86
2018-09-17T03:44:27.693Z,100615.34
2018-09-17T03:46:55.759Z,100615.27
2018-09-17T03:49:24.416Z,100617.22
2018-09-17T03:51:52.700Z,100613.31
2018-09-17T03:54:20.782Z,100615.91
2018-09-17T03:56:48.974Z,100610.13
2018-09-17T03:59:18.536Z,100612.10
2018-09-17T04:01:48.166Z,100611.69
2018-09-17T04:04:17.819Z,100608.62
2018-09-17T04:06:45.897Z,100609.14
2018-09-17T04:09:18.546Z,100606.39
2018-09-17T04:11:46.651Z,100608.70
2018-09-17T04:14:14.731Z,100607.31
2018-09-17T04:16:44.829Z,100607.10
2018-09-17T04:19:12.994Z,100608.25
2018-09-17T04:21:41.455Z,100610.52
2018-09-17T04:24:09.545Z,100608.89
2018-09-17T04:26:43.013Z,100604.91
2018-09-17T04:29:11.657Z,100600.84
2018-09-17T04:31:40.402Z,100599.73
2018-09-17T04:34:08.458Z,100607.27
2018-09-17T04:36:38.055Z,100613.11
2018-09-17T04:39:08.423Z,100620.68
2018-09-17T04:41:37.012Z,100629.22
2018-09-17T04:44:06.187Z,100631.20
2018-09-17T04:46:35.851Z,100628.13
2018-09-17T04:49:04.015Z,100629.64
2018-09-17T04:51:32.117Z,100631.40
2018-09-17T04:54:00.244Z,100639.20
2018-09-17T04:56:28.341Z,100640.44
2018-09-17T04:58:56.439Z,100644.59
2018-09-17T05:01:24.780Z,100640.14
2018-09-17T05:03:53.952Z,100636.73
2018-09-17T05:06:22.604Z,100642.14
2018-09-17T05:08:51.297Z,100643.37
2018-09-17T05:11:20.370Z,100647.41
2018-09-17T05:13:49.019Z,100657.01
2018-09-17T05:16:17.146Z,100660.36
2018-09-17T05:18:46.512Z,100662.73
2018-09-17T05:21:15.611Z,100670.36
2018-09-17T05:23:44.519Z,100673.57
2018-09-17T05:26:13.687Z,100668.19
2018-09-17T05:28:43.371Z,100668.98
2018-09-17T05:31:11.470Z,100667.03
2018-09-17T05:33:39.613Z,100660.80
2018-09-17T05:36:08.407Z,100661.09
2018-09-17T05:38:36.513Z,100655.95
2018-09-17T05:41:04.666Z,100647.71
2018-09-17T05:43:34.495Z,100656.70
2018-09-17T05:46:02.843Z,100657.48
2018-09-17T05:48:32.379Z,100665.77
2018-09-17T05:51:01.015Z,100674.70
2018-09-17T05:53:30.260Z,100680.22
2018-09-17T05:55:58.376Z,100681.20
2018-09-17T05:58:27.142Z,100677.86
2018-09-17T06:00:55.268Z,100674.50
2018-09-17T06:03:23.391Z,100676.93
2018-09-17T06:05:52.998Z,100677.95
2018-09-17T06:08:22.912Z,100666.42
2018-09-17T06:10:52.930Z,100670.63
2018-09-17T06:13:21.179Z,100666.47
2018-09-17T06:15:49.328Z,100672.88
2018-09-17T06:18:19.051Z,100673.19
2018-09-17T06:20:47.151Z,100677.30
2018-09-17T06:23:16.026Z,100680.72
2018-09-17T06:25:45.417Z,100676.83
2018-09-17T06:28:13.533Z,100682.23
2018-09-17T06:30:41.679Z,100680.09
2018-09-17T06:33:11.562Z,100683.36
2018-09-17T06:35:39.881Z,100682.23
2018-09-17T06:38:08.194Z,100684.74
2018-09-17T06:40:37.053Z,100683.47
2018-09-17T06:43:06.043Z,100678.81
2018-09-17T06:45:35.257Z,100680.69
2018-09-17T06:48:04.966Z,100678.74
2018-09-17T06:50:36.398Z,100685.94
2018-09-17T06:53:05.906Z,100682.94
2018-09-17T06:55:40.540Z,100681.53
2018-09-17T06:58:11.330Z,100686.00
2018-09-17T07:00:39.592Z,100685.78
2018-09-17T07:03:07.922Z,100687.86
2018-09-17T07:05:37.619Z,100691.92
2018-09-17T07:08:05.755Z,100692.20
2018-09-17T07:10:34.151Z,100697.78
2018-09-17T07:13:02.614Z,100702.89
2018-09-17T07:15:30.731Z,100701.75
2018-09-17T07:18:00.529Z,100694.69
2018-09-17T07:20:28.937Z,100694.83
2018-09-17T07:22:58.771Z,100691.02
2018-09-17T07:25:26.839Z,100690.73
2018-09-17T07:27:55.700Z,100691.15
2018-09-17T07:35:24.339Z,100684.00
2018-09-17T07:37:54.023Z,100679.88
2018-09-17T07:40:22.759Z,100678.39
2018-09-17T07:42:51.733Z,100682.17
2018-09-17T07:45:21.035Z,100680.23
2018-09-17T07:47:49.476Z,100679.51
2018-09-17T07:50:17.587Z,100684.15
2018-09-17T07:52:46.980Z,100676.88
2018-09-17T07:55:25.142Z,100677.02
2018-09-17T07:58:03.484Z,100678.00
2018-09-17T08:00:33.426Z,100670.48
2018-09-17T08:03:01.539Z,100672.67
2018-09-17T08:05:29.630Z,100674.48
2018-09-17T08:07:57.706Z,100670.96
2018-09-17T08:10:26.629Z,100675.04
2018-09-17T08:12:54.863Z,100671.70
2018-09-17T08:15:25.279Z,100667.27
2018-09-17T08:17:53.690Z,100667.78
2018-09-17T08:20:22.566Z,100667.81
2018-09-17T08:22:50.872Z,100664.80
2018-09-17T08:25:19.395Z,100667.25
2018-09-17T08:27:47.755Z,100661.39
2018-09-17T08:30:15.974Z,100659.89
2018-09-17T08:32:44.456Z,100663.21
2018-09-17T08:35:13.966Z,100661.34
2018-09-17T08:37:42.289Z,100661.11
2018-09-17T08:40:28.348Z,100663.02
2018-09-17T08:43:20.224Z,100659.91
2018-09-17T08:45:48.451Z,100663.33
2018-09-17T08:48:16.802Z,100666.26
2018-09-17T08:50:45.275Z,100669.56
2018-09-17T08:53:13.887Z,100673.64
2018-09-17T08:55:44.779Z,100678.58
2018-09-17T08:58:18.433Z,100671.92
2018-09-17T09:00:52.871Z,100671.73
2018-09-17T09:03:27.851Z,100676.36
2018-09-17T09:06:01.858Z,100674.80
2018-09-17T09:08:31.891Z,100666.25
2018-09-17T09:11:06.349Z,100669.41
2018-09-17T09:13:39.301Z,100662.27
2018-09-17T09:16:11.192Z,100667.26
2018-09-17T09:18:41.772Z,100666.00
2018-09-17T09:21:12.101Z,100670.83
2018-09-17T09:23:41.527Z,100666.06
2018-09-17T09:26:13.856Z,100664.36
2018-09-17T09:28:42.450Z,100662.69
2018-09-17T09:31:11.682Z,100654.17
2018-09-17T09:33:41.699Z,100647.76
2018-09-17T09:36:10.117Z,100647.95
2018-09-17T09:38:40.229Z,100643.66
2018-09-17T09:41:10.317Z,100646.22
2018-09-17T09:43:41.110Z,100639.34
2018-09-17T09:46:11.001Z,100638.59
2018-09-17T09:48:40.254Z,100638.09
2018-09-17T09:51:08.526Z,100626.56
2018-09-17T09:53:36.856Z,100630.63
2018-09-17T09:56:05.454Z,100626.70
2018-09-17T09:58:34.351Z,100623.27
2018-09-17T10:01:08.261Z,100627.31
2018-09-17T10:03:44.813Z,100621.75
2018-09-17T10:06:16.391Z,100625.23
2018-09-17T10:08:50.191Z,100615.33
2018-09-17T10:11:24.337Z,100611.89
2018-09-17T10:13:58.015Z,100602.39
2018-09-17T10:16:26.139Z,100612.79
2018-09-17T10:18:59.503Z,100603.67
2018-09-17T10:21:29.241Z,100603.73
2018-09-17T10:23:57.502Z,100595.91
2018-09-17T10:26:25.650Z,100590.23
2018-09-17T10:28:54.271Z,100585.01
2018-09-17T10:31:22.372Z,100576.73
2018-09-17T10:33:50.614Z,100585.81
2018-09-17T10:36:19.351Z,100587.52
2018-09-17T10:38:47.543Z,100580.07
2018-09-17T10:41:16.299Z,100572.67
2018-09-17T10:43:44.601Z,100570.41
2018-09-17T10:46:13.164Z,100567.34
2018-09-17T10:48:43.005Z,100566.04
2018-09-17T10:51:11.175Z,100567.14
2018-09-17T10:53:39.309Z,100568.89
2018-09-17T10:56:08.810Z,100554.08
2018-09-17T10:58:36.922Z,100563.80
2018-09-17T11:01:06.580Z,100562.06
2018-09-17T11:03:34.791Z,100561.70
2018-09-17T11:06:03.012Z,100550.94
2018-09-17T11:08:33.159Z,100551.44
2018-09-17T11:11:01.307Z,100538.20
2018-09-17T11:13:30.517Z,100533.48
2018-09-17T11:15:58.678Z,100531.41
2018-09-17T11:18:26.767Z,100523.83
2018-09-17T11:20:54.866Z,100524.42
2018-09-17T11:23:23.356Z,100524.40
2018-09-17T11:25:51.762Z,100525.78
2018-09-17T11:28:21.369Z,100517.51
2018-09-17T11:30:49.634Z,100515.56
2018-09-17T11:33:17.732Z,100520.88
2018-09-17T11:35:45.836Z,100516.70
2018-09-17T11:38:13.947Z,100505.13
2018-09-17T11:40:42.160Z,100506.12
2018-09-17T11:43:10.311Z,100501.03
2018-09-17T11:45:38.523Z,100486.84
2018-09-17T11:48:06.618Z,100490.02
2018-09-17T11:50:49.277Z,100488.09
2018-09-17T11:53:17.380Z,100484.40
2018-09-17T11:55:45.659Z,100483.95
2018-09-17T11:58:14.961Z,100492.94
2018-09-17T12:00:49.641Z,100482.13
2018-09-17T12:03:23.490Z,100485.91
2018-09-17T12:05:57.108Z,100475.09
2018-09-17T12:08:25.316Z,100468.92
2018-09-17T12:10:53.767Z,100475.70
2018-09-17T12:13:23.332Z,100461.02
2018-09-17T12:15:53.854Z,100459.82
2018-09-17T12:18:22.944Z,100457.89
2018-09-17T12:20:53.051Z,100456.09
2018-09-17T12:23:22.327Z,100448.85
2018-09-17T12:25:51.785Z,100447.66
2018-09-17T12:28:20.363Z,100436.89
2018-09-17T12:30:49.109Z,100434.81
2018-09-17T12:33:21.365Z,100435.95
2018-09-17T12:35:49.845Z,100431.29
2018-09-17T12:38:18.137Z,100441.84
2018-09-17T12:40:46.565Z,100433.17
2018-09-17T12:43:15.646Z,100417.75
2018-09-17T12:45:47.539Z,100409.97
2018-09-17T12:48:16.124Z,100413.02
2018-09-17T12:50:45.285Z,100408.02
2018-09-17T12:53:15.004Z,100403.41
2018-09-17T12:55:48.270Z,100399.34
2018-09-17T12:58:17.251Z,100399.61
2018-09-17T13:00:45.718Z,100388.78
2018-09-17T13:05:36.596Z,100393.14
2018-09-17T13:08:05.230Z,100380.03
2018-09-17T13:10:33.397Z,100386.85
2018-09-17T13:13:02.043Z,100378.23
2018-09-17T13:15:30.511Z,100387.62
2018-09-17T13:17:59.068Z,100379.69
2018-09-17T13:20:27.508Z,100371.33
2018-09-17T13:22:56.140Z,100371.82
2018-09-17T13:25:25.083Z,100365.97
2018-09-17T13:27:53.256Z,100364.64
2018-09-17T13:30:21.534Z,100366.25
2018-09-17T13:32:49.741Z,100343.39
2018-09-17T13:35:18.132Z,100343.41
2018-09-17T13:37:46.324Z,100342.72
2018-09-17T13:40:14.661Z,100336.16
2018-09-17T13:42:43.078Z,100330.59
2018-09-17T13:45:11.465Z,100324.53
2018-09-17T13:47:43.464Z,100324.20
2018-09-17T13:50:11.750Z,100323.75
2018-09-17T13:52:40.066Z,100332.39
2018-09-17T13:55:08.345Z,100327.02
2018-09-17T13:57:36.736Z,100318.48
2018-09-17T14:00:05.043Z,100317.90
2018-09-17T14:02:33.491Z,100313.20
2018-09-17T14:05:02.009Z,100302.01
2018-09-17T14:07:30.699Z,100315.59
2018-09-17T14:09:58.895Z,100301.66
2018-09-17T14:12:27.371Z,100309.76
2018-09-17T14:14:56.645Z,100302.00
2018-09-17T14:17:25.481Z,100298.70
2018-09-17T14:19:54.759Z,100302.84
2018-09-17T14:22:23.846Z,100304.83
2018-09-17T14:24:52.391Z,100300.06
2018-09-17T14:27:20.559Z,100292.84
2018-09-17T14:29:48.943Z,100286.22
2018-09-17T14:32:23.264Z,100281.05
2018-09-17T14:34:52.139Z,100280.36
2018-09-17T14:37:20.574Z,100275.85
2018-09-17T14:39:49.432Z,100262.61
2018-09-17T14:42:17.886Z,100263.75
2018-09-17T14:44:46.770Z,100264.28
2018-09-17T14:47:16.083Z,100256.29
2018-09-17T14:49:44.745Z,100254.59
2018-09-17T14:52:12.896Z,100252.31
2018-09-17T14:54:40.970Z,100248.90
2018-09-17T14:57:09.341Z,100246.16
2018-09-17T14:59:37.698Z,100252.75
2018-09-17T15:02:05.928Z,100244.43
2018-09-17T15:04:34.083Z,100241.99
2018-09-17T15:07:02.356Z,100242.73
2018-09-17T15:09:31.030Z,100234.84
2018-09-17T15:11:59.295Z,100235.23
2018-09-17T15:14:28.020Z,100232.15
2018-09-17T15:16:56.058Z,100226.81
2018-09-17T15:19:24.308Z,100222.04
2018-09-17T15:21:52.736Z,100226.38
2018-09-17T15:24:20.897Z,100222.10
2018-09-17T15:26:49.094Z,100231.75
2018-09-17T15:29:17.895Z,100224.22
2018-09-17T15:31:46.003Z,100224.55
2018-09-17T15:34:14.156Z,100211.13
2018-09-17T15:36:42.442Z,100210.53
2018-09-17T15:39:13.189Z,100221.00
2018-09-17T15:41:41.990Z,100214.91
2018-09-17T15:44:10.997Z,100218.74
2018-09-17T15:46:39.176Z,100219.42
2018-09-17T15:49:07.537Z,100206.17
2018-09-17T15:51:35.751Z,100209.41
2018-09-17T15:54:03.943Z,100206.84
2018-09-17T15:56:32.169Z,100210.34
2018-09-17T15:59:00.339Z,100207.04
2018-09-17T16:01:28.656Z,100208.64
2018-09-17T16:03:57.228Z,100212.16
2018-09-17T16:06:26.991Z,100210.61
2018-09-17T16:08:55.899Z,100206.70
2018-09-17T16:11:24.207Z,100208.58
2018-09-17T16:13:52.441Z,100212.20
2018-09-17T16:16:21.184Z,100221.33
2018-09-17T16:18:49.576Z,100216.95
2018-09-17T16:21:18.472Z,100218.09
2018-09-17T16:23:46.618Z,100222.97
2018-09-17T16:26:15.271Z,100217.23
2018-09-17T16:28:44.266Z,100217.74
2018-09-17T16:31:13.492Z,100218.55
2018-09-17T16:33:41.564Z,100219.91
2018-09-17T16:36:09.733Z,100222.20
2018-09-17T16:38:37.844Z,100226.88
2018-09-17T16:41:06.602Z,100224.30
2018-09-17T16:43:35.289Z,100225.62
2018-09-17T16:46:04.593Z,100223.21
2018-09-17T16:48:32.898Z,100217.76
2018-09-17T16:51:01.072Z,100220.05
2018-09-17T16:53:29.420Z,100215.55
2018-09-17T16:55:58.749Z,100216.31
2018-09-17T16:58:26.981Z,100224.53
2018-09-17T17:05:56.166Z,100216.06
2018-09-17T17:08:24.289Z,100224.61
2018-09-17T17:10:52.560Z,100214.51
2018-09-17T17:13:22.727Z,100210.14
2018-09-17T17:15:50.922Z,100209.69
2018-09-17T17:18:21.283Z,100213.73
2018-09-17T17:20:49.469Z,100212.25
2018-09-17T17:23:17.646Z,100202.60
2018-09-17T17:25:45.897Z,100212.25
2018-09-17T17:28:14.166Z,100207.88
2018-09-17T17:30:42.397Z,100211.77
2018-09-17T17:33:14.776Z,100210.25
2018-09-17T17:35:43.247Z,100212.77
2018-09-17T17:38:11.370Z,100217.58
2018-09-17T17:40:39.895Z,100217.89
2018-09-17T17:43:07.749Z,100208.97
2018-09-17T17:45:35.886Z,100214.42
2018-09-17T17:48:04.084Z,100213.73
2018-09-17T17:50:32.261Z,100214.63
2018-09-17T17:53:00.415Z,100217.36
2018-09-17T17:55:28.678Z,100215.34
2018-09-17T17:57:58.054Z,100225.31
2018-09-17T18:00:26.500Z,100227.28
2018-09-17T18:02:54.632Z,100223.94
2018-09-17T18:05:23.032Z,100222.73
2018-09-17T18:07:51.310Z,100225.26
2018-09-17T18:10:19.588Z,100225.29
2018-09-17T18:12:47.963Z,100229.03
2018-09-17T18:15:16.195Z,100222.29
2018-09-17T18:17:44.295Z,100230.77
2018-09-17T18:20:12.475Z,100225.56
2018-09-17T18:22:40.713Z,100225.92
2018-09-17T18:25:09.250Z,100226.55
2018-09-17T18:27:37.435Z,100225.61
2018-09-17T18:30:07.235Z,100227.70
2018-09-17T18:32:35.293Z,100226.87
2018-09-17T18:35:04.799Z,100226.23
2018-09-17T18:37:32.881Z,100229.29
2018-09-17T18:40:01.159Z,100232.20
2018-09-17T18:42:29.627Z,100227.98
2018-09-17T18:44:58.239Z,100232.58
2018-09-17T18:47:26.487Z,100230.20
2018-09-17T18:49:55.845Z,100228.26
2018-09-17T18:52:23.994Z,100230.52
2018-09-17T18:54:53.599Z,100236.80
2018-09-17T18:57:22.237Z,100238.27
2018-09-17T18:59:50.482Z,100246.25
2018-09-17T19:02:18.818Z,100239.92
2018-09-17T19:04:47.035Z,100237.47
2018-09-17T19:07:16.167Z,100239.86
2018-09-17T19:09:47.231Z,100245.48
2018-09-17T19:12:16.427Z,100243.00
2018-09-17T19:14:50.738Z,100245.68
2018-09-17T19:17:24.058Z,100243.94
2018-09-17T19:19:53.822Z,100238.59
2018-09-17T19:22:27.377Z,100236.08
2018-09-17T19:24:57.202Z,100241.86
2018-09-17T19:27:30.606Z,100243.47
2018-09-17T19:29:59.508Z,100239.41
2018-09-17T19:32:27.865Z,100244.98
2018-09-17T19:34:56.623Z,100247.83
2018-09-17T19:37:31.138Z,100243.91
2018-09-17T19:40:04.707Z,100244.14
2018-09-17T19:42:33.056Z,100245.92
2018-09-17T19:45:07.014Z,100237.92
2018-09-17T19:47:35.431Z,100239.39
2018-09-17T19:50:07.847Z,100242.20
2018-09-17T19:52:35.941Z,100237.86
2018-09-17T19:55:04.130Z,100235.82
2018-09-17T19:57:37.625Z,100234.03
2018-09-17T20:00:07.003Z,100232.23
2018-09-17T20:02:35.288Z,100233.56
2018-09-17T20:05:08.814Z,100227.24
2018-09-17T20:07:37.148Z,100229.45
2018-09-17T20:10:05.666Z,100222.14
2018-09-17T20:12:33.888Z,100225.74
2018-09-17T20:15:02.185Z,100226.07
2018-09-17T20:17:30.270Z,100216.73
2018-09-17T20:19:58.387Z,100220.31
2018-09-17T20:22:26.959Z,100217.26
2018-09-17T20:24:55.409Z,100221.83
2018-09-17T20:27:23.558Z,100219.55
2018-09-17T20:29:52.098Z,100222.02
2018-09-17T20:32:20.361Z,100221.56
2018-09-17T20:34:48.517Z,100220.91
2018-09-17T20:37:16.774Z,100225.28
2018-09-17T20:39:45.228Z,100223.67
2018-09-17T20:42:13.379Z,100222.34
2018-09-17T20:44:41.752Z,100222.74
2018-09-17T20:47:09.962Z,100220.52
2018-09-17T20:49:38.123Z,100221.06
2018-09-17T20:52:06.278Z,100221.91
2018-09-17T20:54:34.831Z,100222.94
2018-09-17T20:57:03.939Z,100218.13
2018-09-17T20:59:32.095Z,100214.27
2018-09-17T21:02:00.193Z,100219.03
2018-09-17T21:04:29.460Z,100217.80
2018-09-17T21:06:57.699Z,100219.55
2018-09-17T21:09:25.796Z,100214.80
2018-09-17T21:11:53.919Z,100212.66
2018-09-17T21:14:22.238Z,100218.70
2018-09-17T21:16:50.608Z,100212.16
2018-09-17T21:19:18.804Z,100210.05
2018-09-17T21:21:46.834Z,100207.00
2018-09-17T21:24:14.927Z,100203.20
2018-09-17T21:26:43.089Z,100207.91
2018-09-17T21:29:11.237Z,100199.38
2018-09-17T21:31:39.627Z,100201.98
2018-09-17T21:34:07.764Z,100198.08
2018-09-17T21:36:35.891Z,100190.26
2018-09-17T21:39:06.465Z,100194.63
2018-09-17T21:41:34.651Z,100201.09
2018-09-17T21:44:02.978Z,100189.85
2018-09-17T21:46:31.186Z,100187.33
2018-09-17T21:49:00.539Z,100188.14
2018-09-17T21:51:28.742Z,100187.32
2018-09-17T21:53:57.178Z,100188.17
2018-09-17T21:56:25.423Z,100186.44
2018-09-17T21:58:53.628Z,100192.95
2018-09-17T22:01:21.823Z,100189.94
2018-09-17T22:03:50.792Z,100199.06
2018-09-17T22:06:18.906Z,100189.97
2018-09-17T22:08:47.046Z,100192.95
2018-09-17T22:11:15.193Z,100186.52
2018-09-17T22:13:50.831Z,100186.55
2018-09-17T22:16:19.146Z,100189.95
2018-09-17T22:18:47.429Z,100184.80
2018-09-17T22:21:15.648Z,100187.84
2018-09-17T22:23:43.776Z,100186.55
2018-09-17T22:26:11.922Z,100188.71
2018-09-17T22:28:40.018Z,100188.26
2018-09-17T22:31:08.178Z,100185.27
2018-09-17T22:33:36.437Z,100189.16
2018-09-17T22:36:04.646Z,100188.72
2018-09-17T22:38:32.930Z,100186.13
2018-09-17T22:41:01.231Z,100183.98
2018-09-17T22:43:29.517Z,100180.07
2018-09-17T22:45:57.691Z,100184.41
2018-09-17T22:48:25.968Z,100189.13
2018-09-17T22:50:55.707Z,100189.55
2018-09-17T22:53:23.878Z,100186.09
2018-09-17T22:55:52.000Z,100190.86
2018-09-17T22:58:20.392Z,100194.31
2018-09-17T23:00:49.744Z,100188.27
2018-09-17T23:03:17.863Z,100189.55
2018-09-17T23:05:45.912Z,100189.54
2018-09-17T23:08:14.020Z,100189.06
2018-09-17T23:10:42.738Z,100185.64
2018-09-17T23:13:10.871Z,100189.09
2018-09-17T23:15:39.490Z,100192.50
2018-09-17T23:18:07.611Z,100188.63
2018-09-17T23:20:37.116Z,100189.05
2018-09-17T23:23:05.363Z,100188.17
2018-09-17T23:25:34.205Z,100183.80
2018-09-17T23:28:02.284Z,100183.41
2018-09-17T23:30:30.362Z,100178.14
2018-09-17T23:32:58.743Z,100182.84
2018-09-17T23:40:26.222Z,100184.09
2018-09-17T23:42:54.443Z,100187.95
2018-09-17T23:45:22.619Z,100185.42
2018-09-17T23:47:50.782Z,100184.50
2018-09-17T23:50:19.092Z,100183.22
2018-09-17T23:52:48.954Z,100182.37
2018-09-17T23:55:17.171Z,100184.88
2018-09-17T23:57:45.535Z,100183.50
